Marine Blue — 3ECO4 — position and weather

sailwx.info

Track history (hours):
 
Tides and Currents Weather Stations Pressure Air Temp Water Temp Dewpoint Dewpoint Depression Visibility Wind Speed Wind Dir Waves Ship Positions

Marine Blue

Last reported at 2016-Mar-26 11:27 UTC. Time now 2016-May-04 11:44 UTC.
Position N 34°02' E 134°58'.
Warning: this ship's position is 39 days out of date.

Length 125 m; draft 9.4 m.

Type: Cargo ship. MMSI: 371414000.

Date/timePositionNaut miles runAvg speedWind from/ knotsBaromVisibWave heightAir tempDewpointWater temp
2016-Mar-26 11:27N 34°02' E 134°58'1112.4
2016-Mar-26 10:32N 34°14' E 134°58'1111.5
2016-Mar-26 09:33N 34°24' E 135°04'1212.5
2016-Mar-26 08:33N 34°33' E 135°14'7 7.1
2016-Mar-26 07:30N 34°40' E 135°13'0 0.0
2016-Mar-26 06:30N 34°40' E 135°13'0 0.0
2016-Mar-26 05:30N 34°40' E 135°13'0 0.0
2016-Mar-26 04:30N 34°40' E 135°13'0 0.0
2016-Mar-26 03:30N 34°40' E 135°13'0 0.0
2016-Mar-26 02:30N 34°40' E 135°13'0 0.0
2016-Mar-26 01:30N 34°40' E 135°13'0 0.0
2016-Mar-26 00:24N 34°40' E 135°13'0 0.0
2016-Mar-25 23:30N 34°40' E 135°13'0 0.0
2016-Mar-25 22:24N 34°40' E 135°13'4 4.8
2016-Mar-25 21:33N 34°38' E 135°18'0 0.1
2016-Mar-25 20:32N 34°38' E 135°18'0 0.0
2016-Mar-25 19:32N 34°38' E 135°18'0 0.0
2016-Mar-25 18:32N 34°38' E 135°18'0 0.1
2016-Mar-25 17:20N 34°38' E 135°18'0 0.1
2016-Mar-25 16:32N 34°38' E 135°18'0 0.0
2016-Mar-25 15:32N 34°38' E 135°18'0 0.0
2016-Mar-25 14:31N 34°38' E 135°18'0 0.0
2016-Mar-25 13:31N 34°38' E 135°18'0 0.0
2016-Mar-25 12:31N 34°38' E 135°18'0 0.0
2016-Mar-25 11:13N 34°38' E 135°18'0 0.1
2016-Mar-25 10:31N 34°38' E 135°18'0 0.0
2016-Mar-25 09:31N 34°38' E 135°18'0 0.0
2016-Mar-25 08:31N 34°38' E 135°18'0 0.0
2016-Mar-25 07:31N 34°38' E 135°18'2 1.6
2016-Mar-25 06:33N 34°37' E 135°18'1111.3
2016-Mar-25 05:33N 34°35' E 135°04'  
2016-Mar-17 00:05N 34°40' E 134°48'  
Track history (hours):
 
Tides and Currents Weather Stations Pressure Air Temp Water Temp Dewpoint Dewpoint Depression Visibility Wind Speed Wind Dir Waves Ship Positions

Marine Blue

Last reported at 2016-Mar-26 11:27 UTC. Time now 2016-May-04 11:44 UTC.
Position N 34°02' E 134°58'.
Warning: this ship's position is 39 days out of date.

Length 125 m; draft 9.4 m.

Type: Cargo ship. MMSI: 371414000.

Date/timePositionNaut miles runAvg speedWind from/ knotsBaromVisibWave heightAir tempDewpointWater temp
2016-Mar-26 11:27N 34°02' E 134°58'1112.4
2016-Mar-26 10:32N 34°14' E 134°58'1111.5
2016-Mar-26 09:33N 34°24' E 135°04'1212.5
2016-Mar-26 08:33N 34°33' E 135°14'7 7.1
2016-Mar-26 07:30N 34°40' E 135°13'0 0.0
2016-Mar-26 06:30N 34°40' E 135°13'0 0.0
2016-Mar-26 05:30N 34°40' E 135°13'0 0.0
2016-Mar-26 04:30N 34°40' E 135°13'0 0.0
2016-Mar-26 03:30N 34°40' E 135°13'0 0.0
2016-Mar-26 02:30N 34°40' E 135°13'0 0.0
2016-Mar-26 01:30N 34°40' E 135°13'0 0.0
2016-Mar-26 00:24N 34°40' E 135°13'0 0.0
2016-Mar-25 23:30N 34°40' E 135°13'0 0.0
2016-Mar-25 22:24N 34°40' E 135°13'4 4.8
2016-Mar-25 21:33N 34°38' E 135°18'0 0.1
2016-Mar-25 20:32N 34°38' E 135°18'0 0.0
2016-Mar-25 19:32N 34°38' E 135°18'0 0.0
2016-Mar-25 18:32N 34°38' E 135°18'0 0.1
2016-Mar-25 17:20N 34°38' E 135°18'0 0.1
2016-Mar-25 16:32N 34°38' E 135°18'0 0.0
2016-Mar-25 15:32N 34°38' E 135°18'0 0.0
2016-Mar-25 14:31N 34°38' E 135°18'0 0.0
2016-Mar-25 13:31N 34°38' E 135°18'0 0.0
2016-Mar-25 12:31N 34°38' E 135°18'0 0.0
2016-Mar-25 11:13N 34°38' E 135°18'0 0.1
2016-Mar-25 10:31N 34°38' E 135°18'0 0.0
2016-Mar-25 09:31N 34°38' E 135°18'0 0.0
2016-Mar-25 08:31N 34°38' E 135°18'0 0.0
2016-Mar-25 07:31N 34°38' E 135°18'2 1.6
2016-Mar-25 06:33N 34°37' E 135°18'1111.3
2016-Mar-25 05:33N 34°35' E 135°04'  
2016-Mar-17 00:05N 34°40' E 134°48'  

Dump ship's entire track history